Time;durP1;ratioP1;P1;durP2;ratioP2;P2;SDS_P1;SDS_P2;PMS_P1;PMS_P2;Temp;Humidity;BMP_temperature;BMP_pressure;BME280_temperature;BME280_humidity;BME280_pressure;Samples;Min_cycle;Max_cycle;Signal;HPM_P1;HPM_P2
2022/06/19 00:03:02;;;;;;;8.43;7.03;;;23.30;1.00;;;;;;6329589;28;20659;-55
2022/06/19 00:06:05;;;;;;;9.47;6.93;;;23.30;1.00;;;;;;6323047;28;20243;-53
2022/06/19 00:09:08;;;;;;;8.10;7.60;;;23.20;1.00;;;;;;6329969;28;20236;-54
2022/06/19 00:12:12;;;;;;;7.80;7.00;;;23.10;1.00;;;;;;6332021;28;20772;-55
2022/06/19 00:15:16;;;;;;;7.70;7.20;;;23.10;1.00;;;;;;6303539;28;20219;-53
2022/06/19 00:18:21;;;;;;;7.47;6.43;;;23.00;1.00;;;;;;6306079;28;20390;-54
2022/06/19 00:21:24;;;;;;;8.60;7.50;;;23.00;1.00;;;;;;6314357;28;20708;-54
2022/06/19 00:24:29;;;;;;;8.20;7.60;;;23.00;1.00;;;;;;6329759;28;20775;-53
2022/06/19 00:27:36;;;;;;;8.97;7.30;;;23.00;1.00;;;;;;6311429;28;20244;-56
2022/06/19 00:30:40;;;;;;;10.03;7.20;;;22.90;1.00;;;;;;6319899;28;20256;-54
2022/06/19 00:33:44;;;;;;;8.40;7.50;;;22.80;1.00;;;;;;6321422;28;20242;-54
2022/06/19 00:36:49;;;;;;;8.97;8.07;;;22.80;1.00;;;;;;6335414;28;20232;-56
2022/06/19 00:39:52;;;;;;;7.53;6.97;;;22.80;1.00;;;;;;6308919;28;20240;-55
2022/06/19 00:42:55;;;;;;;7.50;6.77;;;22.70;1.00;;;;;;6307602;28;20343;-55
2022/06/19 00:46:02;;;;;;;7.87;7.17;;;22.70;1.00;;;;;;6307232;28;20319;-55
2022/06/19 00:49:11;;;;;;;8.77;7.60;;;22.60;1.00;;;;;;6307175;28;20697;-56
2022/06/19 00:52:18;;;;;;;8.80;8.10;;;22.50;1.00;;;;;;6305530;28;20308;-54
2022/06/19 00:55:24;;;;;;;8.40;7.63;;;22.50;1.00;;;;;;6324299;28;20812;-54
2022/06/19 00:58:32;;;;;;;7.93;7.13;;;22.50;1.00;;;;;;6330359;28;20262;-56
2022/06/19 01:01:35;;;;;;;7.87;7.00;;;22.50;1.00;;;;;;6332647;28;20284;-53
2022/06/19 01:04:45;;;;;;;7.23;6.63;;;22.50;1.00;;;;;;6330308;28;20798;-55
2022/06/19 01:07:48;;;;;;;7.30;6.60;;;22.40;1.00;;;;;;6334293;28;20347;-54
2022/06/19 01:10:52;;;;;;;7.60;6.97;;;22.40;1.00;;;;;;6335504;28;20623;-55
2022/06/19 01:13:55;;;;;;;10.53;7.40;;;22.30;1.00;;;;;;6314158;28;20239;-55
2022/06/19 01:17:01;;;;;;;7.60;7.10;;;22.30;1.00;;;;;;6309055;28;20239;-55
2022/06/19 01:20:09;;;;;;;7.13;6.63;;;22.30;1.00;;;;;;6310533;28;20233;-55
2022/06/19 01:23:21;;;;;;;10.87;7.83;;;22.30;1.00;;;;;;6326160;28;20235;-55
2022/06/19 01:26:26;;;;;;;8.57;7.60;;;22.30;1.00;;;;;;6335963;28;20300;-56
2022/06/19 01:29:31;;;;;;;8.03;7.47;;;22.20;1.00;;;;;;6333884;28;20240;-55
2022/06/19 01:32:37;;;;;;;9.10;7.03;;;22.20;1.00;;;;;;6333157;28;20545;-55
2022/06/19 01:35:42;;;;;;;11.10;7.60;;;22.10;1.00;;;;;;6309476;28;20270;-52
2022/06/19 01:38:48;;;;;;;7.90;7.30;;;22.10;1.00;;;;;;6331964;28;20236;-54
2022/06/19 01:41:53;;;;;;;8.10;7.20;;;22.10;1.00;;;;;;6335054;28;20296;-55
2022/06/19 01:44:56;;;;;;;9.37;8.13;;;22.00;1.00;;;;;;6317782;28;20246;-54
2022/06/19 01:48:00;;;;;;;7.90;7.20;;;21.90;1.00;;;;;;6308496;28;20265;-54
2022/06/19 01:51:06;;;;;;;8.10;7.30;;;21.90;1.00;;;;;;6309587;28;20269;-55
2022/06/19 01:54:17;;;;;;;8.10;7.50;;;21.90;1.00;;;;;;6319275;28;20260;-56
2022/06/19 01:57:23;;;;;;;7.53;7.03;;;21.90;1.00;;;;;;6334150;28;20331;-55
2022/06/19 02:00:28;;;;;;;9.50;7.40;;;21.90;1.00;;;;;;6314847;28;20232;-54
2022/06/19 02:03:36;;;;;;;8.33;7.57;;;21.80;1.00;;;;;;6316381;28;20326;-54
2022/06/19 02:06:47;;;;;;;7.40;7.00;;;21.80;1.00;;;;;;6328778;28;20228;-54
2022/06/19 02:09:51;;;;;;;7.63;7.13;;;21.70;1.00;;;;;;6330547;28;20324;-55
2022/06/19 02:12:57;;;;;;;8.80;8.03;;;21.80;1.00;;;;;;6333908;28;20290;-54
2022/06/19 02:16:02;;;;;;;8.37;7.67;;;21.70;1.00;;;;;;6327522;28;20476;-54
2022/06/19 02:19:05;;;;;;;8.07;7.37;;;21.60;1.00;;;;;;6307639;28;20229;-56
2022/06/19 02:22:12;;;;;;;8.87;8.07;;;21.60;1.00;;;;;;6315550;28;20701;-55
2022/06/19 02:25:15;;;;;;;8.17;7.53;;;21.60;1.00;;;;;;6331192;28;20621;-55
2022/06/19 02:28:19;;;;;;;7.57;6.97;;;21.50;1.00;;;;;;6333569;28;20692;-55
2022/06/19 02:31:23;;;;;;;10.17;7.83;;;21.50;1.00;;;;;;6333133;28;20274;-54
2022/06/19 02:34:28;;;;;;;8.50;7.43;;;21.50;1.00;;;;;;6335209;27;20242;-55
2022/06/19 02:37:38;;;;;;;7.97;7.27;;;21.40;1.00;;;;;;6340739;27;20297;-55
2022/06/19 02:40:51;;;;;;;7.77;7.27;;;21.40;1.00;;;;;;6332681;28;20293;-55
2022/06/19 02:43:55;;;;;;;8.73;7.90;;;21.40;1.00;;;;;;6314868;28;20735;-55
2022/06/19 02:46:58;;;;;;;12.83;7.47;;;21.30;1.00;;;;;;6333098;28;20238;-54
2022/06/19 02:50:01;;;;;;;8.37;7.17;;;21.30;1.00;;;;;;6317906;28;20376;-53
2022/06/19 02:53:04;;;;;;;8.90;6.90;;;21.30;1.00;;;;;;6297367;28;20303;-54
2022/06/19 02:56:07;;;;;;;8.67;7.70;;;21.40;1.00;;;;;;6314224;27;20231;-54
2022/06/19 02:59:11;;;;;;;7.80;7.23;;;21.30;1.00;;;;;;6350420;27;20283;-55
2022/06/19 03:02:15;;;;;;;8.10;7.50;;;21.40;1.00;;;;;;6337796;27;20315;-54
2022/06/19 03:05:20;;;;;;;10.13;7.50;;;21.30;1.00;;;;;;6338420;27;20247;-55
2022/06/19 03:08:23;;;;;;;7.67;7.17;;;21.30;1.00;;;;;;6329500;28;20312;-55
2022/06/19 03:11:25;;;;;;;8.47;7.47;;;21.30;1.00;;;;;;6330067;28;20575;-54
2022/06/19 03:14:30;;;;;;;8.13;7.53;;;21.30;1.00;;;;;;6314050;28;20275;-54
2022/06/19 03:17:33;;;;;;;8.47;7.43;;;21.40;1.00;;;;;;6306930;28;20331;-54
2022/06/19 03:20:37;;;;;;;8.60;7.90;;;21.40;1.00;;;;;;6307464;28;20381;-55
2022/06/19 03:23:40;;;;;;;7.90;7.40;;;21.30;1.00;;;;;;6306603;28;20228;-54
2022/06/19 03:26:43;;;;;;;8.83;8.13;;;21.40;1.00;;;;;;6306159;28;20620;-54
2022/06/19 03:29:48;;;;;;;7.40;6.90;;;21.40;1.00;;;;;;6305378;28;20343;-55
2022/06/19 03:32:51;;;;;;;8.00;7.40;;;21.40;1.00;;;;;;6283610;28;20824;-55
2022/06/19 03:35:54;;;;;;;9.83;7.80;;;21.40;1.00;;;;;;6324739;28;20335;-55
2022/06/19 03:38:57;;;;;;;10.77;8.30;;;21.40;1.00;;;;;;6321897;28;20284;-54
2022/06/19 03:42:00;;;;;;;10.53;7.93;;;21.50;1.00;;;;;;6329259;28;20240;-55
2022/06/19 03:45:06;;;;;;;8.67;7.67;;;21.50;1.00;;;;;;6331715;28;20276;-56
2022/06/19 03:48:11;;;;;;;8.87;7.87;;;21.50;1.00;;;;;;6326054;28;20299;-55
2022/06/19 03:51:15;;;;;;;9.33;8.63;;;21.50;1.00;;;;;;6323799;27;20266;-56
2022/06/19 03:54:18;;;;;;;8.60;7.90;;;21.60;1.00;;;;;;6325411;27;20309;-55
2022/06/19 03:57:21;;;;;;;8.70;7.93;;;21.60;1.00;;;;;;6323766;27;20317;-53
2022/06/19 04:00:26;;;;;;;8.30;7.80;;;21.70;1.00;;;;;;6324331;28;20390;-53
2022/06/19 04:03:29;;;;;;;9.03;8.17;;;21.70;1.00;;;;;;6327652;28;20392;-54
2022/06/19 04:06:35;;;;;;;10.17;8.13;;;21.70;1.00;;;;;;6330246;28;20259;-54
2022/06/19 04:09:38;;;;;;;9.87;9.17;;;21.80;1.00;;;;;;6337309;27;20590;-55
2022/06/19 04:12:41;;;;;;;9.67;8.80;;;21.80;1.00;;;;;;6333180;27;20793;-55
2022/06/19 04:15:45;;;;;;;10.03;8.03;;;21.80;1.00;;;;;;6327657;28;20332;-54
2022/06/19 04:18:49;;;;;;;9.63;8.17;;;21.90;1.00;;;;;;6327697;28;20228;-55
2022/06/19 04:21:57;;;;;;;8.83;8.23;;;21.90;1.00;;;;;;6337880;28;20250;-55
2022/06/19 04:25:00;;;;;;;9.83;9.20;;;22.00;1.00;;;;;;6330408;28;20235;-55
2022/06/19 04:28:04;;;;;;;9.80;8.80;;;21.90;1.00;;;;;;6339979;28;20239;-54
2022/06/19 04:31:08;;;;;;;9.80;9.00;;;21.90;1.00;;;;;;6328065;28;20358;-55
2022/06/19 04:34:12;;;;;;;10.13;9.33;;;21.90;1.00;;;;;;6339309;28;20232;-55
2022/06/19 04:37:15;;;;;;;10.93;9.13;;;22.00;1.00;;;;;;6320481;28;20235;-55
2022/06/19 04:40:18;;;;;;;9.80;8.93;;;22.00;1.00;;;;;;6333772;28;20224;-55
2022/06/19 04:43:21;;;;;;;9.43;8.70;;;22.10;1.00;;;;;;6336442;27;20228;-55
2022/06/19 04:46:26;;;;;;;10.03;9.23;;;22.20;1.00;;;;;;6336115;27;20318;-54
2022/06/19 04:49:29;;;;;;;10.40;9.50;;;22.30;1.00;;;;;;6337133;27;20602;-58
2022/06/19 04:52:32;;;;;;;10.67;9.73;;;22.40;1.00;;;;;;6336497;27;20811;-55
2022/06/19 04:55:35;;;;;;;11.43;9.90;;;22.40;1.00;;;;;;6336101;27;20276;-55
2022/06/19 04:58:38;;;;;;;10.40;9.37;;;22.50;1.00;;;;;;6334505;27;20294;-55
2022/06/19 05:01:43;;;;;;;13.63;9.70;;;22.60;1.00;;;;;;6341125;27;20834;-54
2022/06/19 05:04:49;;;;;;;10.03;9.37;;;22.70;1.00;;;;;;6337681;27;20338;-55
2022/06/19 05:07:52;;;;;;;10.47;9.53;;;22.90;1.00;;;;;;6328394;27;20316;-54
2022/06/19 05:10:55;;;;;;;10.33;9.40;;;23.10;1.00;;;;;;6334073;27;20709;-55
2022/06/19 05:13:58;;;;;;;12.13;10.33;;;23.30;1.00;;;;;;6335198;27;20378;-54
2022/06/19 05:17:02;;;;;;;12.90;10.10;;;23.40;1.00;;;;;;6334932;28;20530;-53
2022/06/19 05:20:06;;;;;;;11.40;10.30;;;23.60;1.00;;;;;;6340025;27;20616;-54
2022/06/19 05:23:10;;;;;;;12.37;9.73;;;23.80;1.00;;;;;;6327200;28;20594;-55
2022/06/19 05:26:16;;;;;;;11.70;10.53;;;24.00;1.00;;;;;;6330715;28;20628;-54
2022/06/19 05:29:20;;;;;;;12.23;10.80;;;24.20;1.00;;;;;;6332294;28;20236;-55
2022/06/19 05:32:26;;;;;;;11.20;9.97;;;24.30;1.00;;;;;;6334159;27;20676;-53
2022/06/19 05:35:29;;;;;;;11.43;10.03;;;24.40;1.00;;;;;;6334190;27;20307;-54
2022/06/19 05:38:32;;;;;;;14.73;9.87;;;24.70;1.00;;;;;;6331488;28;20236;-54
2022/06/19 05:41:35;;;;;;;12.47;10.67;;;25.00;1.00;;;;;;6324774;28;20358;-54
2022/06/19 05:44:38;;;;;;;12.33;9.20;;;25.20;1.00;;;;;;6311710;28;20274;-54
2022/06/19 05:47:42;;;;;;;15.27;10.70;;;25.40;1.00;;;;;;6316989;28;20319;-55
2022/06/19 05:50:45;;;;;;;10.83;9.77;;;25.70;1.00;;;;;;6329975;27;20235;-54
2022/06/19 05:53:50;;;;;;;16.63;9.80;;;25.90;1.00;;;;;;6330776;27;20608;-54
2022/06/19 05:56:53;;;;;;;15.80;10.10;;;26.10;1.00;;;;;;6331175;28;20377;-55
2022/06/19 05:59:56;;;;;;;12.60;8.93;;;26.30;1.00;;;;;;6333362;28;20266;-54
2022/06/19 06:03:00;;;;;;;10.77;9.23;;;26.60;1.00;;;;;;6333347;28;20454;-54
2022/06/19 06:06:07;;;;;;;16.30;10.43;;;26.70;1.00;;;;;;6334272;28;20301;-55
2022/06/19 06:09:13;;;;;;;12.63;9.33;;;26.90;1.00;;;;;;6331395;28;20452;-55
2022/06/19 06:12:16;;;;;;;19.03;9.90;;;26.90;1.00;;;;;;6333390;28;20243;-54
2022/06/19 06:15:19;;;;;;;13.67;10.20;;;27.00;1.00;;;;;;6331881;28;20722;-53
2022/06/19 06:18:23;;;;;;;15.73;9.77;;;27.10;1.00;;;;;;6332749;27;20628;-56
2022/06/19 06:21:26;;;;;;;14.57;9.50;;;27.20;1.00;;;;;;6330235;27;20241;-55
2022/06/19 06:24:29;;;;;;;11.60;10.17;;;27.30;1.00;;;;;;6330935;28;20228;-53
2022/06/19 06:27:32;;;;;;;12.00;9.23;;;27.40;1.00;;;;;;6333624;27;20310;-55
2022/06/19 06:30:35;;;;;;;10.10;8.70;;;27.70;1.00;;;;;;6330435;27;20718;-54
2022/06/19 06:33:40;;;;;;;12.93;8.27;;;28.00;1.00;;;;;;6333686;28;20628;-54
2022/06/19 06:36:44;;;;;;;17.67;9.33;;;28.20;1.00;;;;;;6328584;28;20610;-54
2022/06/19 06:39:47;;;;;;;13.30;8.77;;;28.50;1.00;;;;;;6329406;27;20604;-54
2022/06/19 06:42:51;;;;;;;16.27;9.07;;;28.70;1.00;;;;;;6331068;28;20397;-54
2022/06/19 06:45:54;;;;;;;12.35;8.10;;;28.90;1.00;;;;;;6331289;28;20614;-54
2022/06/19 06:49:02;;;;;;;19.27;9.98;;;28.90;1.00;;;;;;6325103;28;20244;-53
2022/06/19 06:52:08;;;;;;;16.92;8.45;;;28.90;1.00;;;;;;6332036;28;20442;-54
2022/06/19 06:55:11;;;;;;;11.55;8.82;;;29.10;1.00;;;;;;6323165;27;20773;-54
2022/06/19 06:58:14;;;;;;;16.10;9.13;;;29.10;1.00;;;;;;6334009;27;20240;-54
2022/06/19 07:01:19;;;;;;;16.02;8.80;;;29.20;1.00;;;;;;6333403;27;20372;-55
2022/06/19 07:04:24;;;;;;;13.10;8.70;;;29.30;1.00;;;;;;6329485;28;20361;-53
2022/06/19 07:07:27;;;;;;;13.38;8.88;;;29.50;1.00;;;;;;6331464;27;20248;-54
2022/06/19 07:10:30;;;;;;;22.58;8.90;;;29.70;1.00;;;;;;6325124;27;20389;-54
2022/06/19 07:13:33;;;;;;;13.65;7.80;;;30.00;1.00;;;;;;6331579;28;20235;-55
2022/06/19 07:16:36;;;;;;;15.30;7.72;;;29.80;1.00;;;;;;6330716;27;20328;-55
2022/06/19 07:19:41;;;;;;;17.98;7.63;;;29.80;1.00;;;;;;6329348;27;20322;-53
2022/06/19 07:22:44;;;;;;;12.77;7.55;;;30.00;1.00;;;;;;6329954;28;20297;-55
2022/06/19 07:25:47;;;;;;;12.43;7.22;;;30.30;1.00;;;;;;6330255;28;20319;-55
2022/06/19 07:28:50;;;;;;;11.15;7.82;;;30.20;1.00;;;;;;6332156;27;20293;-55
2022/06/19 07:32:01;;;;;;;10.75;6.75;;;30.20;1.00;;;;;;6330977;27;20231;-54
2022/06/19 07:35:06;;;;;;;17.00;7.93;;;30.40;1.00;;;;;;6330926;28;20227;-56
2022/06/19 07:38:09;;;;;;;22.25;7.43;;;30.30;1.00;;;;;;6323467;28;20263;-53
2022/06/19 07:41:12;;;;;;;16.20;6.50;;;30.50;1.00;;;;;;6330045;28;20722;-55
2022/06/19 07:44:15;;;;;;;15.07;6.13;;;30.60;1.00;;;;;;6331021;28;20240;-54
2022/06/19 07:50:40;;;;;;;17.00;6.32;;;30.70;1.00;;;;;;6329050;28;20349;-54
2022/06/19 07:53:43;;;;;;;9.45;5.88;;;30.80;1.00;;;;;;6328543;28;20753;-54
2022/06/19 07:56:46;;;;;;;12.32;5.78;;;31.00;1.00;;;;;;6330133;28;20242;-56
2022/06/19 07:59:49;;;;;;;15.25;5.65;;;31.10;1.00;;;;;;6328270;28;20376;-53
2022/06/19 08:02:54;;;;;;;16.83;5.85;;;31.10;1.00;;;;;;6331863;27;20606;-55
2022/06/19 08:05:58;;;;;;;13.02;5.80;;;31.30;1.00;;;;;;6331336;28;20348;-55
2022/06/19 08:09:01;;;;;;;14.52;5.35;;;31.30;1.00;;;;;;6325131;28;20235;-55
2022/06/19 08:12:04;;;;;;;9.43;5.10;;;31.30;1.00;;;;;;6331302;28;20264;-55
2022/06/19 08:15:08;;;;;;;11.80;5.85;;;31.40;1.00;;;;;;6326810;28;20318;-55
2022/06/19 08:18:11;;;;;;;12.68;5.28;;;31.50;1.00;;;;;;6326381;28;20318;-53
2022/06/19 08:21:15;;;;;;;14.80;4.65;;;31.70;1.00;;;;;;6330486;28;20228;-55
2022/06/19 08:24:18;;;;;;;15.40;4.95;;;31.80;1.00;;;;;;6328021;28;20246;-54
2022/06/19 08:27:21;;;;;;;17.30;5.28;;;31.90;1.00;;;;;;6326011;28;20269;-54
2022/06/19 08:30:28;;;;;;;12.35;4.70;;;32.00;1.00;;;;;;6330073;28;20780;-53
2022/06/19 08:33:37;;;;;;;14.18;4.95;;;32.10;1.00;;;;;;6314844;28;20232;-54
2022/06/19 08:36:41;;;;;;;14.20;4.85;;;32.30;1.00;;;;;;6328824;28;20417;-52
2022/06/19 08:39:46;;;;;;;22.85;5.75;;;32.40;1.00;;;;;;6327158;28;20304;-53
2022/06/19 08:42:57;;;;;;;13.48;4.80;;;32.50;1.00;;;;;;6324060;28;20633;-54
2022/06/19 08:46:14;;;;;;;22.27;5.82;;;32.50;1.00;;;;;;6326745;28;20486;-53
2022/06/19 08:49:34;;;;;;;18.90;4.95;;;32.60;1.00;;;;;;6322029;28;20431;-52
2022/06/19 08:52:52;;;;;;;11.27;4.95;;;32.70;1.00;;;;;;6324030;28;20324;-55
2022/06/19 08:56:02;;;;;;;24.00;5.35;;;33.00;1.00;;;;;;6328556;28;20283;-54
2022/06/19 08:59:12;;;;;;;19.00;5.25;;;33.10;1.00;;;;;;6328967;28;20362;-53
2022/06/19 09:02:24;;;;;;;22.38;5.55;;;33.20;1.00;;;;;;6327293;28;20248;-54
2022/06/19 09:05:40;;;;;;;24.25;5.55;;;33.40;1.00;;;;;;6329708;28;20252;-53
2022/06/19 09:09:00;;;;;;;18.85;6.18;;;33.40;1.00;;;;;;6325401;28;20262;-54
2022/06/19 09:12:18;;;;;;;20.63;6.65;;;33.60;1.00;;;;;;6329507;28;20311;-53
2022/06/19 09:15:30;;;;;;;18.83;6.03;;;33.60;1.00;;;;;;6327096;28;20577;-54
2022/06/19 09:18:39;;;;;;;24.83;6.90;;;33.80;1.00;;;;;;6323914;28;20323;-53
2022/06/19 09:22:02;;;;;;;24.40;6.47;;;34.00;1.00;;;;;;6329415;28;20232;-53
2022/06/19 09:25:17;;;;;;;25.05;7.07;;;34.00;1.00;;;;;;6323769;28;20286;-54
2022/06/19 09:28:28;;;;;;;19.02;6.15;;;34.10;1.00;;;;;;6327431;28;20723;-54
2022/06/19 09:31:36;;;;;;;24.10;6.57;;;34.10;1.00;;;;;;6333750;28;20396;-52
2022/06/19 09:34:55;;;;;;;28.55;6.43;;;34.00;1.00;;;;;;6323599;28;20240;-54
2022/06/19 09:38:01;;;;;;;22.60;7.30;;;34.10;1.00;;;;;;6330098;28;20234;-53
2022/06/19 09:41:09;;;;;;;25.25;7.28;;;34.10;1.00;;;;;;6332401;28;20278;-54
2022/06/19 09:44:22;;;;;;;19.38;7.15;;;34.20;1.00;;;;;;6334936;27;20431;-53
2022/06/19 09:47:33;;;;;;;24.73;7.00;;;34.30;1.00;;;;;;6305441;28;20236;-51
2022/06/19 09:51:01;;;;;;;16.20;6.65;;;34.40;1.00;;;;;;6331604;28;20280;-53
2022/06/19 09:54:09;;;;;;;26.50;7.50;;;34.40;1.00;;;;;;6333057;28;20324;-54
2022/06/19 09:57:19;;;;;;;28.80;7.35;;;34.40;1.00;;;;;;6331692;27;20293;-54
2022/06/19 10:00:34;;;;;;;16.25;5.47;;;34.50;1.00;;;;;;6331470;28;20237;-54
2022/06/19 10:04:01;;;;;;;20.50;5.75;;;34.50;1.00;;;;;;6334123;28;20279;-55
2022/06/19 10:07:10;;;;;;;23.75;5.65;;;34.50;1.00;;;;;;6329768;28;20232;-53
2022/06/19 10:10:19;;;;;;;12.25;5.47;;;34.30;1.00;;;;;;6324528;28;20746;-52
2022/06/19 10:13:32;;;;;;;14.98;5.28;;;34.50;1.00;;;;;;6327066;27;20236;-54
2022/06/19 10:16:45;;;;;;;19.17;5.65;;;34.50;1.00;;;;;;6330036;28;20285;-55
2022/06/19 10:19:53;;;;;;;22.48;5.22;;;34.60;1.00;;;;;;6328182;28;20576;-53
2022/06/19 10:23:05;;;;;;;19.50;6.57;;;34.60;1.00;;;;;;6328902;27;20326;-53
2022/06/19 10:26:26;;;;;;;36.25;21.27;;;34.70;1.00;;;;;;6327593;27;20228;-55
2022/06/19 10:29:46;;;;;;;16.73;5.45;;;34.80;1.00;;;;;;6325454;28;20950;-54
2022/06/19 10:33:12;;;;;;;15.80;5.00;;;34.90;1.00;;;;;;6328756;27;20269;-52
2022/06/19 10:36:22;;;;;;;19.83;6.65;;;35.00;1.00;;;;;;6323137;28;20232;-53
2022/06/19 10:39:40;;;;;;;12.57;5.00;;;34.90;1.00;;;;;;6324320;27;20272;-53
2022/06/19 10:42:51;;;;;;;19.40;5.28;;;35.00;1.00;;;;;;6327824;28;20228;-54
2022/06/19 10:45:58;;;;;;;19.02;5.07;;;34.90;1.00;;;;;;6332166;28;20225;-53
2022/06/19 10:49:05;;;;;;;22.13;6.28;;;35.00;1.00;;;;;;6332977;28;20240;-54
2022/06/19 10:52:13;;;;;;;19.17;5.45;;;35.10;1.00;;;;;;6332067;27;20899;-54
2022/06/19 10:55:26;;;;;;;17.60;5.30;;;35.20;1.00;;;;;;6327119;27;20752;-52
2022/06/19 10:58:30;;;;;;;16.25;4.85;;;35.30;1.00;;;;;;6325479;28;20338;-54
2022/06/19 11:05:04;;;;;;;20.42;5.40;;;35.40;1.00;;;;;;6313096;27;20224;-54
2022/06/19 11:08:07;;;;;;;17.48;5.05;;;35.50;1.00;;;;;;6325354;28;20637;-53
2022/06/19 11:11:14;;;;;;;20.42;5.15;;;35.50;1.00;;;;;;6332681;27;20459;-54
2022/06/19 11:14:30;;;;;;;19.13;4.93;;;35.60;1.00;;;;;;6317927;28;20241;-54
2022/06/19 11:17:36;;;;;;;16.83;5.30;;;35.70;1.00;;;;;;6323901;28;20604;-52
2022/06/19 11:20:40;;;;;;;19.02;4.78;;;35.70;1.00;;;;;;6324243;27;20758;-53
2022/06/19 11:23:54;;;;;;;17.60;5.65;;;35.80;1.00;;;;;;6327762;28;20254;-53
2022/06/19 11:26:57;;;;;;;18.48;5.22;;;35.80;1.00;;;;;;6328549;27;20705;-53
2022/06/19 11:30:00;;;;;;;12.63;4.78;;;35.80;1.00;;;;;;6318571;28;20240;-53
2022/06/19 11:33:09;;;;;;;20.25;5.40;;;35.90;1.00;;;;;;6319563;28;20236;-53
2022/06/19 11:36:28;;;;;;;16.95;5.60;;;36.00;1.00;;;;;;6310880;28;20721;-54
2022/06/19 11:39:37;;;;;;;16.73;5.38;;;35.90;1.00;;;;;;6297102;28;20300;-53
2022/06/19 11:42:47;;;;;;;17.52;6.15;;;36.00;1.00;;;;;;6319663;27;20747;-53
2022/06/19 11:46:00;;;;;;;15.77;5.43;;;36.10;1.00;;;;;;6327881;27;20224;-54
2022/06/19 11:49:28;;;;;;;20.60;5.53;;;36.10;1.00;;;;;;6306788;28;20612;-54
2022/06/19 11:52:40;;;;;;;22.30;5.63;;;36.10;1.00;;;;;;6306682;28;20228;-54
2022/06/19 11:55:45;;;;;;;13.25;5.25;;;36.20;1.00;;;;;;6303718;28;20232;-54
2022/06/19 11:58:53;;;;;;;25.45;6.13;;;36.30;1.00;;;;;;6319739;28;20244;-54
2022/06/19 12:01:56;;;;;;;14.93;5.80;;;36.20;1.00;;;;;;6318677;28;20237;-53
2022/06/19 12:05:06;;;;;;;16.98;6.68;;;36.20;1.00;;;;;;6328603;28;20228;-52
2022/06/19 12:08:23;;;;;;;19.55;7.22;;;36.00;1.00;;;;;;6318509;28;20313;-54
2022/06/19 12:11:38;;;;;;;16.10;7.10;;;35.60;1.00;;;;;;6318836;28;20249;-53
2022/06/19 12:14:54;;;;;;;18.50;6.75;;;35.30;1.00;;;;;;6312142;28;20378;-53
2022/06/19 12:17:59;;;;;;;19.20;6.88;;;35.10;1.00;;;;;;6321126;28;20292;-53
2022/06/19 12:21:18;;;;;;;17.45;6.60;;;35.00;1.00;;;;;;6322597;28;20324;-54
2022/06/19 12:24:27;;;;;;;14.32;6.50;;;34.80;1.00;;;;;;6317926;28;20362;-54
2022/06/19 12:27:35;;;;;;;14.88;5.80;;;34.60;1.00;;;;;;6324509;28;20934;-53
2022/06/19 12:30:42;;;;;;;17.13;6.22;;;34.50;1.00;;;;;;6318759;28;20302;-54
2022/06/19 12:33:50;;;;;;;18.02;6.15;;;34.40;1.00;;;;;;6317849;28;20238;-53
2022/06/19 12:36:55;;;;;;;11.23;5.97;;;34.20;1.00;;;;;;6321465;28;20219;-53
2022/06/19 12:39:58;;;;;;;15.07;5.85;;;34.00;1.00;;;;;;6316401;28;20398;-53
2022/06/19 12:43:07;;;;;;;16.90;5.55;;;34.00;1.00;;;;;;6320349;28;20274;-53
2022/06/19 12:46:20;;;;;;;12.90;6.45;;;33.90;1.00;;;;;;6314749;28;20236;-53
2022/06/19 12:49:41;;;;;;;11.63;6.10;;;33.80;1.00;;;;;;6309050;28;20244;-53
2022/06/19 12:52:50;;;;;;;16.35;6.43;;;33.90;1.00;;;;;;6320786;28;20248;-51
2022/06/19 12:56:00;;;;;;;17.23;6.03;;;33.80;1.00;;;;;;6322805;28;20369;-54
2022/06/19 12:59:29;;;;;;;18.35;6.20;;;33.70;1.00;;;;;;6327327;28;20255;-53
2022/06/19 13:03:08;;;;;;;15.90;5.95;;;33.50;1.00;;;;;;6334174;28;20718;-52
2022/06/19 13:06:30;;;;;;;11.30;5.63;;;33.50;1.00;;;;;;6328773;28;20323;-53
2022/06/19 13:09:54;;;;;;;14.05;6.15;;;33.60;1.00;;;;;;6319748;28;20270;-53
2022/06/19 13:13:13;;;;;;;14.27;6.30;;;33.60;1.00;;;;;;6332971;28;20236;-54
2022/06/19 13:16:22;;;;;;;14.45;5.93;;;33.50;1.00;;;;;;6333077;28;20232;-53
2022/06/19 13:19:36;;;;;;;15.00;6.10;;;33.30;1.00;;;;;;6309729;28;20240;-52
2022/06/19 13:22:45;;;;;;;18.65;6.45;;;33.20;1.00;;;;;;6322090;28;20748;-54
2022/06/19 13:26:04;;;;;;;13.80;6.32;;;33.20;1.00;;;;;;6333496;28;20228;-52
2022/06/19 13:29:18;;;;;;;14.88;5.50;;;33.10;1.00;;;;;;6325733;28;20728;-53
2022/06/19 13:32:30;;;;;;;11.90;6.00;;;32.90;1.00;;;;;;6326479;28;20248;-53
2022/06/19 13:35:42;;;;;;;15.15;5.80;;;32.80;1.00;;;;;;6327552;28;20282;-53
2022/06/19 13:38:54;;;;;;;15.32;6.25;;;32.50;1.00;;;;;;6323173;27;20232;-54
2022/06/19 13:42:16;;;;;;;12.77;5.82;;;32.40;1.00;;;;;;6322993;28;20559;-53
2022/06/19 13:45:32;;;;;;;13.20;6.35;;;32.30;1.00;;;;;;6318135;28;20426;-53
2022/06/19 13:48:40;;;;;;;22.35;6.22;;;32.20;1.00;;;;;;6320627;28;20240;-53
2022/06/19 13:52:02;;;;;;;16.50;6.32;;;32.20;1.00;;;;;;6314378;28;20325;-53
2022/06/19 13:55:21;;;;;;;20.20;5.82;;;32.20;1.00;;;;;;6320880;28;20274;-53
2022/06/19 13:58:47;;;;;;;15.02;6.25;;;32.40;1.00;;;;;;6323126;28;20717;-52
2022/06/19 14:01:56;;;;;;;18.33;5.55;;;32.50;1.00;;;;;;6326441;28;20728;-53
2022/06/19 14:05:07;;;;;;;16.77;5.43;;;32.40;1.00;;;;;;6309599;28;20604;-53
2022/06/19 14:08:32;;;;;;;14.68;5.13;;;32.50;1.00;;;;;;6324366;27;20510;-52
2022/06/19 14:15:03;;;;;;;16.60;5.95;;;32.60;1.00;;;;;;6316152;27;20256;-52
2022/06/19 14:18:17;;;;;;;12.43;4.80;;;32.50;1.00;;;;;;6315921;28;20239;-52
2022/06/19 14:21:51;;;;;;;14.10;5.22;;;32.30;1.00;;;;;;6314266;27;20513;-54
2022/06/19 14:25:07;;;;;;;8.00;5.72;;;32.10;1.00;;;;;;6332788;27;20235;-53
2022/06/19 14:28:18;;;;;;;14.40;5.95;;;31.70;1.00;;;;;;6331340;28;20236;-54
2022/06/19 14:31:25;;;;;;;15.38;5.70;;;31.40;1.00;;;;;;6320164;28;20230;-53
2022/06/19 14:34:53;;;;;;;14.13;6.45;;;31.30;1.00;;;;;;6323710;28;20398;-52
2022/06/19 14:38:30;;;;;;;14.88;5.97;;;31.10;1.00;;;;;;6322483;28;20236;-54
2022/06/19 14:41:36;;;;;;;8.70;5.72;;;30.90;1.00;;;;;;6302670;28;20293;-54
2022/06/19 14:44:47;;;;;;;8.55;5.43;;;30.70;1.00;;;;;;6326511;28;20222;-54
2022/06/19 14:48:04;;;;;;;10.90;5.43;;;30.50;1.00;;;;;;6331938;27;20767;-52
2022/06/19 14:51:26;;;;;;;12.07;5.40;;;30.40;1.00;;;;;;6330749;27;20312;-52
2022/06/19 14:54:42;;;;;;;14.55;6.03;;;30.30;1.00;;;;;;6319829;28;20721;-53
2022/06/19 14:57:48;;;;;;;14.10;6.18;;;30.20;1.00;;;;;;6319510;28;20331;-54
2022/06/19 15:00:57;;;;;;;11.73;5.88;;;30.20;1.00;;;;;;6304595;28;20315;-52
2022/06/19 15:04:05;;;;;;;9.48;5.90;;;30.10;1.00;;;;;;6315560;27;20385;-52
2022/06/19 15:07:19;;;;;;;12.82;5.85;;;30.10;1.00;;;;;;6323648;28;20228;-54
2022/06/19 15:10:26;;;;;;;10.70;5.88;;;30.00;1.00;;;;;;6313915;28;20220;-53
2022/06/19 15:13:35;;;;;;;14.48;6.10;;;29.90;1.00;;;;;;6332695;28;20451;-53
2022/06/19 15:16:42;;;;;;;8.10;5.53;;;29.80;1.00;;;;;;6326107;28;20318;-54
2022/06/19 15:19:48;;;;;;;15.85;6.18;;;29.70;1.00;;;;;;6325987;28;20671;-53
2022/06/19 15:23:11;;;;;;;12.52;6.20;;;29.60;1.00;;;;;;6300935;28;20236;-54
2022/06/19 15:26:39;;;;;;;12.63;6.17;;;29.50;1.00;;;;;;6331547;28;20323;-54
2022/06/19 15:29:51;;;;;;;9.00;6.00;;;29.30;1.00;;;;;;6326264;28;20687;-54
2022/06/19 15:33:02;;;;;;;10.55;5.78;;;29.20;1.00;;;;;;6325328;28;20806;-54
2022/06/19 15:36:08;;;;;;;14.37;5.83;;;29.20;1.00;;;;;;6326171;27;20237;-54
2022/06/19 15:39:34;;;;;;;9.82;5.30;;;29.20;1.00;;;;;;6328098;28;20247;-52
2022/06/19 15:43:32;;;;;;;13.60;6.30;;;29.10;1.00;;;;;;6331086;28;20627;-53
2022/06/19 15:46:35;;;;;;;7.27;5.40;;;29.00;1.00;;;;;;6332902;27;20220;-53
2022/06/19 15:49:47;;;;;;;7.40;5.93;;;28.90;1.00;;;;;;6318877;28;20238;-54
2022/06/19 15:52:52;;;;;;;11.60;6.07;;;28.80;1.00;;;;;;6322737;28;20252;-53
2022/06/19 15:56:00;;;;;;;8.97;5.60;;;28.70;1.00;;;;;;6343034;27;20228;-52
2022/06/19 15:59:07;;;;;;;8.80;6.00;;;28.70;1.00;;;;;;6321132;28;20711;-52
2022/06/19 16:02:18;;;;;;;6.57;5.67;;;28.60;1.00;;;;;;6325193;28;20240;-54
2022/06/19 16:05:30;;;;;;;8.73;6.27;;;28.50;1.00;;;;;;6313979;28;20220;-53
2022/06/19 16:08:38;;;;;;;8.03;6.37;;;28.30;1.00;;;;;;6313768;28;20258;-53
2022/06/19 16:11:52;;;;;;;10.40;6.47;;;28.30;1.00;;;;;;6326681;28;20439;-52
2022/06/19 16:15:16;;;;;;;8.30;6.00;;;28.40;1.00;;;;;;6328273;28;20335;-53
2022/06/19 16:18:25;;;;;;;7.77;5.67;;;28.30;1.00;;;;;;6320696;28;20260;-54
2022/06/19 16:21:29;;;;;;;6.40;5.80;;;28.20;1.00;;;;;;6321638;28;20261;-54
2022/06/19 16:24:39;;;;;;;12.93;7.00;;;28.10;1.00;;;;;;6321851;28;20462;-54
2022/06/19 16:27:46;;;;;;;7.13;5.33;;;28.00;1.00;;;;;;6330057;28;20227;-54
2022/06/19 16:30:55;;;;;;;12.60;6.30;;;28.00;1.00;;;;;;6328757;28;20255;-54
2022/06/19 16:34:01;;;;;;;6.83;6.13;;;27.80;1.00;;;;;;6304857;28;20378;-54
2022/06/19 16:44:09;;;;;;;10.63;5.53;;;27.10;1.00;;;;;;6331201;28;20336;-53